createdAt,value
2018-08-28T00:01:50.705Z,18.00
2018-08-28T00:04:19.689Z,18.00
2018-08-28T00:06:48.677Z,17.90
2018-08-28T00:09:17.696Z,17.90
2018-08-28T00:11:46.649Z,17.80
2018-08-28T00:14:15.641Z,17.70
2018-08-28T00:16:44.639Z,17.60
2018-08-28T00:19:13.623Z,17.60
2018-08-28T00:21:42.639Z,17.50
2018-08-28T00:24:11.607Z,17.50
2018-08-28T00:26:40.630Z,17.40
2018-08-28T00:29:09.610Z,17.40
2018-08-28T00:31:38.614Z,17.40
2018-08-28T00:34:07.671Z,17.30
2018-08-28T00:36:36.665Z,17.30
2018-08-28T00:39:06.108Z,17.20
2018-08-28T00:41:35.113Z,17.20
2018-08-28T00:44:04.444Z,17.10
2018-08-28T00:46:33.487Z,17.10
2018-08-28T00:49:02.874Z,17.00
2018-08-28T00:51:31.866Z,17.00
2018-08-28T00:54:00.834Z,16.90
2018-08-28T00:56:29.818Z,16.90
2018-08-28T00:58:58.778Z,16.90
2018-08-28T01:01:27.784Z,16.90
2018-08-28T01:03:56.774Z,16.80
2018-08-28T01:06:25.796Z,16.80
2018-08-28T01:08:54.759Z,16.80
2018-08-28T01:11:23.753Z,16.80
2018-08-28T01:13:52.734Z,16.70
2018-08-28T01:16:21.726Z,16.80
2018-08-28T01:18:50.694Z,16.80
2018-08-28T01:21:19.693Z,16.80
2018-08-28T01:23:48.950Z,16.80
2018-08-28T01:26:18.027Z,16.80
2018-08-28T01:28:46.999Z,16.90
2018-08-28T01:31:15.992Z,16.90
2018-08-28T01:33:45.050Z,16.90
2018-08-28T01:36:14.068Z,16.90
2018-08-28T01:38:43.058Z,16.80
2018-08-28T01:41:12.077Z,16.90
2018-08-28T01:43:41.045Z,16.90
2018-08-28T01:46:10.039Z,17.00
2018-08-28T01:48:39.006Z,17.00
2018-08-28T01:51:08.411Z,17.00
2018-08-28T01:53:37.402Z,17.00
2018-08-28T01:56:06.390Z,17.00
2018-08-28T01:58:35.369Z,17.00
2018-08-28T02:01:04.410Z,17.10
2018-08-28T02:03:33.392Z,17.00
2018-08-28T02:06:02.910Z,17.00
2018-08-28T02:08:32.822Z,17.00
2018-08-28T02:11:01.864Z,17.00
2018-08-28T02:13:30.840Z,17.00
2018-08-28T02:15:59.834Z,17.00
2018-08-28T02:18:28.789Z,17.00
2018-08-28T02:20:57.794Z,16.90
2018-08-28T02:23:27.259Z,16.90
2018-08-28T02:25:56.249Z,16.90
2018-08-28T02:28:25.215Z,16.90
2018-08-28T02:30:54.259Z,16.90
2018-08-28T02:33:23.733Z,16.90
2018-08-28T02:35:52.757Z,16.90
2018-08-28T02:38:21.726Z,16.80
2018-08-28T02:40:50.731Z,16.90
2018-08-28T02:43:19.710Z,16.90
2018-08-28T02:45:48.698Z,16.80
2018-08-28T02:48:17.699Z,16.80
2018-08-28T02:50:46.679Z,16.90
2018-08-28T02:53:15.674Z,16.90
2018-08-28T02:55:46.521Z,16.90
2018-08-28T02:58:15.507Z,16.90
2018-08-28T03:00:44.492Z,16.90
2018-08-28T03:03:13.487Z,16.70
2018-08-28T03:05:42.584Z,16.70
2018-08-28T03:08:11.595Z,16.60
2018-08-28T03:10:40.615Z,16.70
2018-08-28T03:13:09.612Z,16.60
2018-08-28T03:15:38.643Z,16.70
2018-08-28T03:18:07.674Z,16.70
2018-08-28T03:20:36.708Z,16.60
2018-08-28T03:23:05.697Z,16.70
2018-08-28T03:25:34.707Z,16.60
2018-08-28T03:28:03.694Z,16.50
2018-08-28T03:30:32.789Z,16.50
2018-08-28T03:33:01.768Z,16.50
2018-08-28T03:35:30.791Z,16.50
2018-08-28T03:38:01.008Z,16.60
2018-08-28T03:40:29.998Z,16.60
2018-08-28T03:42:58.994Z,16.60
2018-08-28T03:45:27.968Z,16.60
2018-08-28T03:47:56.962Z,16.70
2018-08-28T03:50:25.937Z,16.70
2018-08-28T03:52:54.926Z,16.70
2018-08-28T03:55:23.988Z,16.80
2018-08-28T03:57:52.984Z,16.70
2018-08-28T04:00:21.942Z,16.80
2018-08-28T04:02:50.941Z,16.90
2018-08-28T04:05:19.951Z,16.80
2018-08-28T04:07:48.937Z,16.70
2018-08-28T04:10:18.102Z,16.70
2018-08-28T04:12:47.093Z,16.70
2018-08-28T04:15:16.063Z,16.60
2018-08-28T04:17:48.095Z,16.60
2018-08-28T04:20:18.036Z,16.50
2018-08-28T04:22:47.416Z,16.40
2018-08-28T04:25:18.383Z,16.50
2018-08-28T04:27:48.171Z,16.40
2018-08-28T04:30:17.673Z,16.40
2018-08-28T04:32:46.651Z,16.40
2018-08-28T04:35:20.391Z,16.50
2018-08-28T04:37:49.478Z,16.50
2018-08-28T04:40:18.463Z,16.40
2018-08-28T04:42:47.456Z,16.50
2018-08-28T04:45:16.532Z,16.50
2018-08-28T04:48:01.162Z,16.40
2018-08-28T04:50:30.155Z,16.50
2018-08-28T04:52:59.165Z,16.50
2018-08-28T04:55:28.159Z,16.40
2018-08-28T04:57:57.169Z,16.50
2018-08-28T05:00:26.160Z,16.50
2018-08-28T05:02:55.139Z,16.60
2018-08-28T05:05:24.130Z,16.60
2018-08-28T05:07:53.129Z,16.50
2018-08-28T05:10:22.971Z,16.50
2018-08-28T05:12:51.968Z,16.50
2018-08-28T05:15:21.168Z,16.50
2018-08-28T05:17:50.187Z,16.50
2018-08-28T05:20:19.164Z,16.50
2018-08-28T05:22:48.173Z,16.50
2018-08-28T05:25:20.900Z,16.50
2018-08-28T05:27:49.938Z,16.50
2018-08-28T05:30:19.007Z,16.50
2018-08-28T05:32:48.045Z,16.50
2018-08-28T05:35:17.009Z,16.50
2018-08-28T05:37:47.262Z,16.50
2018-08-28T05:40:16.248Z,16.60
2018-08-28T05:42:45.210Z,16.60
2018-08-28T05:45:14.207Z,16.60
2018-08-28T05:47:43.166Z,16.70
2018-08-28T05:50:12.143Z,16.70
2018-08-28T05:52:41.102Z,16.70
2018-08-28T05:55:11.146Z,16.70
2018-08-28T05:57:40.391Z,16.70
2018-08-28T06:00:09.671Z,16.70
2018-08-28T06:02:38.794Z,16.80
2018-08-28T06:05:07.968Z,16.80
2018-08-28T06:07:37.108Z,16.80
2018-08-28T06:10:06.287Z,16.80
2018-08-28T06:12:35.438Z,16.80
2018-08-28T06:15:04.883Z,16.90
2018-08-28T06:17:34.596Z,16.90
2018-08-28T06:20:04.250Z,16.90
2018-08-28T06:22:33.386Z,16.90
2018-08-28T06:25:02.519Z,17.00
2018-08-28T06:27:31.683Z,17.00
2018-08-28T06:30:00.835Z,17.00
2018-08-28T06:32:30.154Z,17.10
2018-08-28T06:35:00.295Z,17.10
2018-08-28T06:37:31.662Z,17.20
2018-08-28T06:40:00.700Z,17.20
2018-08-28T06:42:29.868Z,17.20
2018-08-28T06:44:59.131Z,17.20
2018-08-28T06:47:28.273Z,17.20
2018-08-28T06:49:57.434Z,17.30
2018-08-28T06:52:27.294Z,17.40
2018-08-28T06:54:56.460Z,17.50
2018-08-28T06:57:25.639Z,17.60
2018-08-28T06:59:54.799Z,17.60
2018-08-28T07:02:24.015Z,17.60
2018-08-28T07:04:53.141Z,17.60
2018-08-28T07:07:22.343Z,17.50
2018-08-28T07:09:51.486Z,17.60
2018-08-28T07:12:20.806Z,17.70
2018-08-28T07:14:52.739Z,17.80
2018-08-28T07:17:21.858Z,18.00
2018-08-28T07:19:51.019Z,18.10
2018-08-28T07:22:20.148Z,18.20
2018-08-28T07:24:49.325Z,18.30
2018-08-28T07:27:18.472Z,18.30
2018-08-28T07:29:47.626Z,18.30
2018-08-28T07:32:16.787Z,18.30
2018-08-28T07:34:45.935Z,18.30
2018-08-28T07:37:15.144Z,18.40
2018-08-28T07:39:44.262Z,18.60
2018-08-28T07:42:13.507Z,18.70
2018-08-28T07:44:42.651Z,18.80
2018-08-28T07:47:11.791Z,18.90
2018-08-28T07:49:41.635Z,19.00
2018-08-28T07:52:11.060Z,19.20
2018-08-28T07:54:40.343Z,19.30
2018-08-28T07:57:09.505Z,19.40
2018-08-28T07:59:39.424Z,19.60
2018-08-28T08:02:08.579Z,19.90
2018-08-28T08:04:37.736Z,20.10
2018-08-28T08:07:07.276Z,20.20
2018-08-28T08:09:37.237Z,20.50
2018-08-28T08:12:06.617Z,20.60
2018-08-28T08:14:36.682Z,20.70
2018-08-28T08:17:06.757Z,20.90
2018-08-28T08:19:35.955Z,21.10
2018-08-28T08:22:05.891Z,21.30
2018-08-28T08:24:35.062Z,21.60
2018-08-28T08:27:04.416Z,21.80
2018-08-28T08:29:33.565Z,21.90
2018-08-28T08:32:02.847Z,22.10
2018-08-28T08:34:31.985Z,22.20
2018-08-28T08:37:01.799Z,22.40
2018-08-28T08:39:30.963Z,22.50
2018-08-28T08:42:00.137Z,22.70
2018-08-28T08:44:29.247Z,22.90
2018-08-28T08:46:58.403Z,23.00
2018-08-28T08:49:27.583Z,23.10
2018-08-28T08:51:56.739Z,23.20
2018-08-28T08:54:26.135Z,23.30
2018-08-28T08:56:56.158Z,23.50
2018-08-28T08:59:25.274Z,23.50
2018-08-28T09:01:55.152Z,23.60
2018-08-28T09:04:24.302Z,23.70
2018-08-28T09:06:53.467Z,23.70
2018-08-28T09:09:22.735Z,23.70
2018-08-28T09:11:52.442Z,23.80
2018-08-28T09:14:22.262Z,23.80
2018-08-28T09:16:52.099Z,23.70
2018-08-28T09:19:21.880Z,23.70
2018-08-28T09:21:51.034Z,23.80
2018-08-28T09:24:20.183Z,23.80
2018-08-28T09:26:50.576Z,23.80
2018-08-28T09:29:20.083Z,23.80
2018-08-28T09:31:49.304Z,23.60
2018-08-28T09:34:18.552Z,23.50
2018-08-28T09:36:47.735Z,23.40
2018-08-28T09:39:17.043Z,23.40
2018-08-28T09:41:46.204Z,23.30
2018-08-28T09:44:15.792Z,23.40
2018-08-28T09:46:44.974Z,23.50
2018-08-28T09:49:14.108Z,23.50
2018-08-28T09:51:43.955Z,23.60
2018-08-28T09:54:13.103Z,23.60
2018-08-28T09:56:42.398Z,23.70
2018-08-28T09:59:11.447Z,23.70
2018-08-28T10:01:45.055Z,23.60
2018-08-28T10:04:15.187Z,23.60
2018-08-28T10:06:45.119Z,23.50
2018-08-28T10:09:16.502Z,23.40
2018-08-28T10:11:45.762Z,23.30
2018-08-28T10:14:15.620Z,23.20
2018-08-28T10:16:44.780Z,23.10
2018-08-28T10:19:14.484Z,23.00
2018-08-28T10:21:43.638Z,22.80
2018-08-28T10:24:12.770Z,22.70
2018-08-28T10:26:41.991Z,22.60
2018-08-28T10:29:11.136Z,22.50
2018-08-28T10:31:40.286Z,22.50
2018-08-28T10:34:09.660Z,22.50
2018-08-28T10:36:38.836Z,22.50
2018-08-28T10:39:09.248Z,22.40
2018-08-28T10:41:38.404Z,22.40
2018-08-28T10:44:07.564Z,22.30
2018-08-28T10:46:37.051Z,22.20
2018-08-28T10:49:06.268Z,22.20
2018-08-28T10:51:35.480Z,22.10
2018-08-28T10:54:05.191Z,22.10
2018-08-28T10:56:34.419Z,22.10
2018-08-28T10:59:04.778Z,22.20
2018-08-28T11:01:33.935Z,22.40
2018-08-28T11:04:03.075Z,22.60
2018-08-28T11:06:32.346Z,22.80
2018-08-28T11:09:01.755Z,22.90
2018-08-28T11:11:31.067Z,22.90
2018-08-28T11:14:01.378Z,23.00
2018-08-28T11:16:30.538Z,22.80
2018-08-28T11:18:59.690Z,22.60
2018-08-28T11:21:28.849Z,22.30
2018-08-28T11:23:57.999Z,22.40
2018-08-28T11:26:27.160Z,22.40
2018-08-28T11:28:56.456Z,22.30
2018-08-28T11:31:25.646Z,22.40
2018-08-28T11:33:54.780Z,22.40
2018-08-28T11:36:24.816Z,22.40
2018-08-28T11:38:53.979Z,22.40
2018-08-28T11:41:23.106Z,22.50
2018-08-28T11:43:52.276Z,22.50
2018-08-28T11:46:21.913Z,22.60
2018-08-28T11:48:51.072Z,22.60
2018-08-28T11:51:20.214Z,22.70
2018-08-28T11:53:49.370Z,22.80
2018-08-28T11:56:18.523Z,22.80
2018-08-28T11:58:47.520Z,22.80
2018-08-28T12:01:23.088Z,22.80
2018-08-28T12:03:52.096Z,22.90
2018-08-28T12:06:21.084Z,22.90
2018-08-28T12:08:50.079Z,22.90
2018-08-28T12:11:19.063Z,22.90
2018-08-28T12:13:48.057Z,22.80
2018-08-28T12:16:18.001Z,22.80
2018-08-28T12:18:47.061Z,22.80
2018-08-28T12:21:16.037Z,22.70
2018-08-28T12:23:45.030Z,22.70
2018-08-28T12:26:13.997Z,22.70
2018-08-28T12:28:42.992Z,22.70
2018-08-28T12:31:11.971Z,22.60
2018-08-28T12:33:40.975Z,22.60
2018-08-28T12:36:09.957Z,22.60
2018-08-28T12:38:38.951Z,22.60
2018-08-28T12:41:07.910Z,22.50
2018-08-28T12:43:36.901Z,22.50
2018-08-28T12:46:05.998Z,22.50
2018-08-28T12:48:34.993Z,22.50
2018-08-28T12:51:03.996Z,22.50
2018-08-28T12:53:33.220Z,22.50
2018-08-28T12:56:02.343Z,22.50
2018-08-28T12:58:31.358Z,22.50
2018-08-28T13:01:00.327Z,22.50
2018-08-28T13:03:29.329Z,22.50
2018-08-28T13:05:58.346Z,22.60
2018-08-28T13:08:27.357Z,22.50
2018-08-28T13:10:56.338Z,22.60
2018-08-28T13:13:25.429Z,22.70
2018-08-28T13:15:58.525Z,22.60
2018-08-28T13:18:28.934Z,22.50
2018-08-28T13:20:57.893Z,22.50
2018-08-28T13:23:26.881Z,22.40
2018-08-28T13:25:55.924Z,22.40
2018-08-28T13:28:24.890Z,22.40
2018-08-28T13:30:53.858Z,22.40
2018-08-28T13:33:22.862Z,22.30
2018-08-28T13:35:51.827Z,22.50
2018-08-28T13:38:20.794Z,22.40
2018-08-28T13:40:49.831Z,22.40
2018-08-28T13:43:18.801Z,22.30
2018-08-28T13:45:47.809Z,22.30
2018-08-28T13:48:16.847Z,22.30
2018-08-28T13:50:45.830Z,22.40
2018-08-28T13:53:14.850Z,22.50
2018-08-28T13:55:43.836Z,22.40
2018-08-28T13:58:23.681Z,22.40
2018-08-28T14:00:52.762Z,22.40
2018-08-28T14:03:22.282Z,22.40
2018-08-28T14:05:51.315Z,22.40
2018-08-28T14:08:20.562Z,22.50
2018-08-28T14:10:49.618Z,22.60
2018-08-28T14:13:19.395Z,22.60
2018-08-28T14:15:48.714Z,22.60
2018-08-28T14:18:18.055Z,22.60
2018-08-28T14:20:47.058Z,22.60
2018-08-28T14:23:16.396Z,22.60
2018-08-28T14:25:45.418Z,22.60
2018-08-28T14:28:14.521Z,22.50
2018-08-28T14:30:43.488Z,22.60
2018-08-28T14:33:12.551Z,22.60
2018-08-28T14:35:41.695Z,22.50
2018-08-28T14:38:10.649Z,22.50
2018-08-28T14:40:39.898Z,22.70
2018-08-28T14:43:11.724Z,22.80
2018-08-28T14:45:40.747Z,22.80
2018-08-28T14:48:09.718Z,22.80
2018-08-28T14:50:38.754Z,22.80
2018-08-28T14:53:07.763Z,22.60
2018-08-28T14:55:36.811Z,22.50
2018-08-28T14:58:06.115Z,22.50
2018-08-28T15:00:35.130Z,22.50
2018-08-28T15:03:04.111Z,22.40
2018-08-28T15:05:33.136Z,22.40
2018-08-28T15:08:02.112Z,22.50
2018-08-28T15:10:31.274Z,22.40
2018-08-28T15:13:00.243Z,22.50
2018-08-28T15:15:29.260Z,22.60
2018-08-28T15:17:58.463Z,22.70
2018-08-28T15:20:27.482Z,22.50
2018-08-28T15:22:56.452Z,22.50
2018-08-28T15:25:25.425Z,22.50
2018-08-28T15:27:54.384Z,22.70
2018-08-28T15:30:23.380Z,22.60
2018-08-28T15:32:52.351Z,22.50
2018-08-28T15:35:21.448Z,22.30
2018-08-28T15:37:55.009Z,22.20
2018-08-28T15:40:25.574Z,22.20
2018-08-28T15:42:54.885Z,22.10
2018-08-28T15:45:26.353Z,22.20
2018-08-28T15:47:56.179Z,22.20
2018-08-28T15:50:26.547Z,22.20
2018-08-28T15:52:55.534Z,22.30
2018-08-28T15:55:24.550Z,22.30
2018-08-28T15:57:53.585Z,22.20
2018-08-28T16:00:22.583Z,22.30
2018-08-28T16:02:51.562Z,22.20
2018-08-28T16:05:21.082Z,22.10
2018-08-28T16:07:50.086Z,22.00
2018-08-28T16:10:19.162Z,21.90
2018-08-28T16:12:48.167Z,21.90
2018-08-28T16:15:17.235Z,21.90
2018-08-28T16:17:46.216Z,21.90
2018-08-28T16:20:15.238Z,21.90
2018-08-28T16:22:50.898Z,22.00
2018-08-28T16:25:19.913Z,22.00
2018-08-28T16:27:49.222Z,22.00
2018-08-28T16:30:18.592Z,22.00
2018-08-28T16:32:47.587Z,22.10
2018-08-28T16:35:16.598Z,22.10
2018-08-28T16:37:45.727Z,22.10
2018-08-28T16:40:14.806Z,22.00
2018-08-28T16:42:43.792Z,22.10
2018-08-28T16:45:12.829Z,22.00
2018-08-28T16:47:41.929Z,22.00
2018-08-28T16:50:10.985Z,21.90
2018-08-28T16:52:39.976Z,21.90
2018-08-28T16:55:09.092Z,21.90
2018-08-28T16:57:38.079Z,21.90
2018-08-28T17:00:07.093Z,21.80
2018-08-28T17:02:36.087Z,21.80
2018-08-28T17:05:05.167Z,21.80
2018-08-28T17:07:34.146Z,21.80
2018-08-28T17:10:03.409Z,21.70
2018-08-28T17:12:32.401Z,21.70
2018-08-28T17:15:01.423Z,21.70
2018-08-28T17:17:30.417Z,21.60
2018-08-28T17:19:59.389Z,21.60
2018-08-28T17:22:28.383Z,21.50
2018-08-28T17:24:57.341Z,21.40
2018-08-28T17:27:26.413Z,21.40
2018-08-28T17:29:55.499Z,21.30
2018-08-28T17:32:24.657Z,21.20
2018-08-28T17:34:53.649Z,21.20
2018-08-28T17:37:25.987Z,21.10
2018-08-28T17:39:54.967Z,21.10
2018-08-28T17:42:24.044Z,21.00
2018-08-28T17:44:53.018Z,20.90
2018-08-28T17:47:22.448Z,20.90
2018-08-28T17:49:51.419Z,20.80
2018-08-28T17:52:20.407Z,20.70
2018-08-28T17:54:49.378Z,20.60
2018-08-28T17:57:18.373Z,20.60
2018-08-28T17:59:47.359Z,20.40
2018-08-28T18:02:16.376Z,20.30
2018-08-28T18:04:47.084Z,20.20
2018-08-28T18:07:16.106Z,20.20
2018-08-28T18:09:45.099Z,20.10
2018-08-28T18:12:14.096Z,20.00
2018-08-28T18:14:43.082Z,19.90
2018-08-28T18:17:12.135Z,19.80
2018-08-28T18:19:41.385Z,19.70
2018-08-28T18:22:11.369Z,19.60
2018-08-28T18:24:42.763Z,19.50
2018-08-28T18:27:12.541Z,19.40
2018-08-28T18:29:41.598Z,19.30
2018-08-28T18:32:10.589Z,19.10
2018-08-28T18:34:39.607Z,19.10
2018-08-28T18:37:08.665Z,19.00
2018-08-28T18:39:37.630Z,18.90
2018-08-28T18:42:07.154Z,18.80
2018-08-28T18:44:36.243Z,18.80
2018-08-28T18:47:06.078Z,18.70
2018-08-28T18:49:35.253Z,18.50
2018-08-28T18:52:10.210Z,18.50
2018-08-28T18:54:39.267Z,18.40
2018-08-28T18:57:08.275Z,18.40
2018-08-28T18:59:44.963Z,18.40
2018-08-28T19:02:14.000Z,18.30
2018-08-28T19:04:43.314Z,18.20
2018-08-28T19:07:12.464Z,18.20
2018-08-28T19:09:42.118Z,18.20
2018-08-28T19:12:11.234Z,18.10
2018-08-28T19:14:40.331Z,18.00
2018-08-28T19:17:09.470Z,18.00
2018-08-28T19:19:38.554Z,17.90
2018-08-28T19:22:08.107Z,17.80
2018-08-28T19:24:37.200Z,17.80
2018-08-28T19:27:06.488Z,17.70
2018-08-28T19:29:35.586Z,17.60
2018-08-28T19:32:05.972Z,17.60
2018-08-28T19:34:35.079Z,17.60
2018-08-28T19:37:04.134Z,17.50
2018-08-28T19:39:33.188Z,17.50
2018-08-28T19:42:02.273Z,17.50
2018-08-28T19:44:31.309Z,17.40
2018-08-28T19:47:00.558Z,17.30
2018-08-28T19:49:29.728Z,17.20
2018-08-28T19:51:59.003Z,17.20
2018-08-28T19:54:28.018Z,17.20
2018-08-28T19:56:57.114Z,17.20
2018-08-28T19:59:26.076Z,17.20
2018-08-28T20:01:55.320Z,17.10
2018-08-28T20:04:24.319Z,17.10
2018-08-28T20:06:53.329Z,17.10
2018-08-28T20:09:22.340Z,17.10
2018-08-28T20:11:51.332Z,17.10
2018-08-28T20:14:20.902Z,17.10
2018-08-28T20:16:51.073Z,17.00
2018-08-28T20:19:21.014Z,17.10
2018-08-28T20:21:50.076Z,17.00
2018-08-28T20:24:19.110Z,17.10
2018-08-28T20:26:48.410Z,17.10
2018-08-28T20:29:17.386Z,17.10
2018-08-28T20:31:46.610Z,17.00
2018-08-28T20:34:15.615Z,16.90
2018-08-28T20:36:44.645Z,16.90
2018-08-28T20:39:13.636Z,16.90
2018-08-28T20:41:43.424Z,16.80
2018-08-28T20:44:12.436Z,16.80
2018-08-28T20:46:41.436Z,16.80
2018-08-28T20:49:10.449Z,16.80
2018-08-28T20:51:39.552Z,16.90
2018-08-28T20:54:08.570Z,16.80
2018-08-28T20:56:37.634Z,16.70
2018-08-28T20:59:07.145Z,16.70
2018-08-28T21:01:36.609Z,16.70
2018-08-28T21:04:06.998Z,16.60
2018-08-28T21:06:38.338Z,16.60
2018-08-28T21:09:07.789Z,16.60
2018-08-28T21:11:36.806Z,16.60
2018-08-28T21:14:05.981Z,16.50
2018-08-28T21:16:34.967Z,16.50
2018-08-28T21:19:04.566Z,16.50
2018-08-28T21:21:33.588Z,16.40
2018-08-28T21:24:02.592Z,16.40
2018-08-28T21:26:31.589Z,16.40
2018-08-28T21:29:00.650Z,16.30
2018-08-28T21:31:29.589Z,16.40
2018-08-28T21:33:58.570Z,16.40
2018-08-28T21:36:28.049Z,16.30
2018-08-28T21:38:57.031Z,16.30
2018-08-28T21:41:26.034Z,16.30
2018-08-28T21:43:55.031Z,16.30
2018-08-28T21:46:24.038Z,16.30
2018-08-28T21:48:53.009Z,16.20
2018-08-28T21:51:22.071Z,16.10
2018-08-28T21:53:51.080Z,16.10
2018-08-28T21:56:20.071Z,16.10
2018-08-28T21:58:49.090Z,16.10
2018-08-28T22:01:18.090Z,16.10
2018-08-28T22:03:47.088Z,16.10
2018-08-28T22:06:21.425Z,16.10
2018-08-28T22:08:50.446Z,16.10
2018-08-28T22:11:19.424Z,16.10
2018-08-28T22:13:48.604Z,16.00
2018-08-28T22:16:17.646Z,16.00
2018-08-28T22:18:46.666Z,15.90
2018-08-28T22:21:15.644Z,15.90
2018-08-28T22:23:44.640Z,15.80
2018-08-28T22:26:13.624Z,15.80
2018-08-28T22:28:42.727Z,15.80
2018-08-28T22:31:11.732Z,15.70
2018-08-28T22:33:40.737Z,15.70
2018-08-28T22:36:09.714Z,15.70
2018-08-28T22:38:38.703Z,15.60
2018-08-28T22:41:07.692Z,15.60
2018-08-28T22:43:36.727Z,15.40
2018-08-28T22:46:06.023Z,15.50
2018-08-28T22:48:35.097Z,15.40
2018-08-28T22:51:04.077Z,15.30
2018-08-28T22:53:33.112Z,15.20
2018-08-28T22:56:02.141Z,15.10
2018-08-28T22:58:31.166Z,15.10
2018-08-28T23:01:00.153Z,15.10
2018-08-28T23:03:29.133Z,15.20
2018-08-28T23:05:58.120Z,15.10
2018-08-28T23:08:27.145Z,15.10
2018-08-28T23:10:56.156Z,15.10
2018-08-28T23:13:25.244Z,14.90
2018-08-28T23:15:54.229Z,14.90
2018-08-28T23:18:23.242Z,14.80
2018-08-28T23:20:52.229Z,14.80
2018-08-28T23:23:21.220Z,14.70
2018-08-28T23:25:50.313Z,14.60
2018-08-28T23:28:19.349Z,14.60
2018-08-28T23:30:48.342Z,14.70
2018-08-28T23:33:17.342Z,14.60
2018-08-28T23:35:46.328Z,14.50
2018-08-28T23:38:15.310Z,14.60
2018-08-28T23:40:44.314Z,14.50
2018-08-28T23:43:13.307Z,14.50
2018-08-28T23:45:42.309Z,14.50
2018-08-28T23:48:11.305Z,14.50
2018-08-28T23:50:40.302Z,14.50
2018-08-28T23:53:09.269Z,14.50
2018-08-28T23:55:38.305Z,14.30
2018-08-28T23:58:07.267Z,14.30
